Time;durP1;ratioP1;P1;durP2;ratioP2;P2;SDS_P1;SDS_P2;PMS_P1;PMS_P2;Temp;Humidity;BMP_temperature;BMP_pressure;BME280_temperature;BME280_humidity;BME280_pressure;Samples;Min_cycle;Max_cycle;Signal;HPM_P1;HPM_P2
2022/07/05 00:00:50;;;;;;;2.88;1.70;;;19.60;99.90;;;;;;5053285;28;20054;-75
2022/07/05 00:03:16;;;;;;;3.97;2.08;;;19.60;99.90;;;;;;5072834;28;20114;-75
2022/07/05 00:05:42;;;;;;;2.63;1.92;;;19.60;99.90;;;;;;5067246;28;20032;-74
2022/07/05 00:08:08;;;;;;;2.25;2.00;;;19.50;99.90;;;;;;5066027;28;20459;-75
2022/07/05 00:10:36;;;;;;;5.00;2.05;;;19.50;99.90;;;;;;5055791;28;20376;-74
2022/07/05 00:13:03;;;;;;;3.25;1.95;;;19.40;99.90;;;;;;5074297;28;20034;-74
2022/07/05 00:15:29;;;;;;;3.22;2.13;;;19.40;99.90;;;;;;5070641;28;20067;-75
2022/07/05 00:17:54;;;;;;;4.63;2.15;;;19.40;99.90;;;;;;5068492;28;20052;-75
2022/07/05 00:20:20;;;;;;;3.63;1.70;;;19.40;99.90;;;;;;5069958;28;20051;-74
2022/07/05 00:22:46;;;;;;;3.78;2.00;;;19.30;99.90;;;;;;5073164;28;20503;-75
2022/07/05 00:25:12;;;;;;;2.63;1.75;;;19.30;99.90;;;;;;5068918;28;20198;-75
2022/07/05 00:27:38;;;;;;;3.05;1.77;;;19.30;99.90;;;;;;5070465;28;20024;-75
2022/07/05 00:30:05;;;;;;;4.22;1.77;;;19.20;99.90;;;;;;5073683;28;20028;-76
2022/07/05 00:32:31;;;;;;;4.35;1.98;;;19.20;99.90;;;;;;5061725;28;20071;-75
2022/07/05 00:34:57;;;;;;;2.47;1.45;;;19.20;99.90;;;;;;5072679;28;20481;-75
2022/07/05 00:37:22;;;;;;;2.30;1.90;;;19.20;99.90;;;;;;5070740;28;20029;-74
2022/07/05 00:39:48;;;;;;;5.72;2.13;;;19.20;99.90;;;;;;5072690;28;20025;-75
2022/07/05 00:42:14;;;;;;;3.58;1.80;;;19.20;99.90;;;;;;5072597;28;20031;-74
2022/07/05 00:44:41;;;;;;;5.32;2.05;;;19.20;99.90;;;;;;5077890;28;20188;-74
2022/07/05 00:47:08;;;;;;;3.08;1.85;;;19.10;99.90;;;;;;5073936;28;20025;-75
2022/07/05 00:49:34;;;;;;;4.00;1.50;;;19.10;99.90;;;;;;5054037;28;20101;-74
2022/07/05 00:52:00;;;;;;;3.50;1.67;;;19.00;99.90;;;;;;5072037;28;20042;-75
2022/07/05 00:54:27;;;;;;;4.57;1.85;;;19.00;99.90;;;;;;5072905;28;20032;-74
2022/07/05 00:56:54;;;;;;;5.50;1.90;;;19.00;99.90;;;;;;5054494;28;20028;-74
2022/07/05 00:59:19;;;;;;;2.42;1.83;;;18.90;99.90;;;;;;5054576;28;20476;-75
2022/07/05 01:01:45;;;;;;;2.67;1.60;;;18.90;99.90;;;;;;5054425;28;20025;-74
2022/07/05 01:04:12;;;;;;;3.90;1.60;;;18.90;99.90;;;;;;5072480;28;20024;-75
2022/07/05 01:06:39;;;;;;;2.60;1.70;;;18.80;99.90;;;;;;5048971;28;20036;-75
2022/07/05 01:09:05;;;;;;;3.28;2.10;;;18.80;99.90;;;;;;5074836;28;20099;-74
2022/07/05 01:11:31;;;;;;;4.45;2.05;;;18.70;99.90;;;;;;5069517;28;20056;-75
2022/07/05 01:13:59;;;;;;;2.72;1.83;;;18.60;99.90;;;;;;5070152;28;20424;-74
2022/07/05 01:16:25;;;;;;;3.60;2.08;;;18.60;99.90;;;;;;5077297;28;20043;-75
2022/07/05 01:18:51;;;;;;;3.08;1.70;;;18.60;99.90;;;;;;5069595;28;20013;-75
2022/07/05 01:21:19;;;;;;;2.03;1.60;;;18.60;99.90;;;;;;5072041;28;20036;-75
2022/07/05 01:23:45;;;;;;;3.22;1.85;;;18.60;99.90;;;;;;5072306;28;20024;-75
2022/07/05 01:26:11;;;;;;;3.60;1.77;;;18.50;99.90;;;;;;5072197;28;20032;-75
2022/07/05 01:28:37;;;;;;;2.28;1.90;;;18.50;99.90;;;;;;5055915;28;20048;-74
2022/07/05 01:31:02;;;;;;;3.38;1.77;;;18.50;99.90;;;;;;5059459;28;20032;-75
2022/07/05 01:33:29;;;;;;;2.95;1.90;;;18.50;99.90;;;;;;5075156;28;20031;-75
2022/07/05 01:35:59;;;;;;;2.35;2.10;;;18.40;99.90;;;;;;5075359;28;20017;-75
2022/07/05 01:38:25;;;;;;;3.00;2.22;;;18.40;99.90;;;;;;5071954;28;20024;-75
2022/07/05 01:40:51;;;;;;;6.00;2.20;;;18.40;99.90;;;;;;5054196;28;20428;-76
2022/07/05 01:43:23;;;;;;;4.22;2.35;;;18.30;99.90;;;;;;5072214;28;20385;-75
2022/07/05 01:45:50;;;;;;;3.83;1.98;;;18.30;99.90;;;;;;5065065;28;20036;-75
2022/07/05 01:48:18;;;;;;;5.03;2.42;;;18.30;99.90;;;;;;5071962;28;20036;-75
2022/07/05 01:50:51;;;;;;;3.33;2.30;;;18.20;99.90;;;;;;5071683;28;20074;-75
2022/07/05 01:53:39;;;;;;;2.13;1.83;;;18.20;99.90;;;;;;5073234;28;20481;-76
2022/07/05 01:56:05;;;;;;;3.78;1.90;;;18.10;99.90;;;;;;5069812;28;20071;-74
2022/07/05 01:58:31;;;;;;;4.00;2.13;;;18.10;99.90;;;;;;5080007;28;20028;-75
2022/07/05 02:00:57;;;;;;;3.13;2.40;;;18.10;99.90;;;;;;5073117;28;20071;-76
2022/07/05 02:03:23;;;;;;;2.13;1.73;;;18.10;99.90;;;;;;5053398;28;20497;-76
2022/07/05 02:05:50;;;;;;;2.67;2.35;;;18.10;99.90;;;;;;5070327;28;20654;-76
2022/07/05 02:08:17;;;;;;;3.42;2.20;;;18.10;99.90;;;;;;5064623;28;20505;-75
2022/07/05 02:10:43;;;;;;;2.53;2.00;;;18.10;99.90;;;;;;5051769;28;20063;-75
2022/07/05 02:13:09;;;;;;;2.75;2.20;;;18.10;99.90;;;;;;5066887;28;20060;-75
2022/07/05 02:15:38;;;;;;;3.03;2.22;;;18.10;99.90;;;;;;5070061;28;20078;-75
2022/07/05 02:18:05;;;;;;;2.95;2.55;;;18.10;99.90;;;;;;5049559;28;20470;-75
2022/07/05 02:20:32;;;;;;;2.33;1.83;;;18.10;99.90;;;;;;5068986;28;20044;-74
2022/07/05 02:22:58;;;;;;;3.90;1.80;;;18.00;99.90;;;;;;5055790;28;20032;-75
2022/07/05 02:25:24;;;;;;;4.22;2.50;;;18.00;99.90;;;;;;5074774;28;20043;-76
2022/07/05 02:27:51;;;;;;;3.15;2.00;;;18.00;99.90;;;;;;5077160;28;20504;-75
2022/07/05 02:30:18;;;;;;;3.65;2.25;;;18.00;99.90;;;;;;5075622;28;20017;-75
2022/07/05 02:32:43;;;;;;;2.03;1.70;;;18.00;99.90;;;;;;5074105;28;20035;-76
2022/07/05 02:35:10;;;;;;;3.33;2.08;;;17.90;99.90;;;;;;5072864;28;20028;-74
2022/07/05 02:37:36;;;;;;;2.72;1.85;;;17.90;99.90;;;;;;5071679;28;20028;-74
2022/07/05 02:40:03;;;;;;;2.45;2.10;;;17.90;99.90;;;;;;5056482;28;20028;-74
2022/07/05 02:42:28;;;;;;;5.70;2.08;;;17.80;99.90;;;;;;5076473;28;20033;-74
2022/07/05 02:44:54;;;;;;;2.72;1.90;;;17.80;99.90;;;;;;5075315;28;20099;-74
2022/07/05 02:47:20;;;;;;;3.63;2.40;;;17.70;99.90;;;;;;5057098;28;20024;-74
2022/07/05 02:49:45;;;;;;;2.85;2.08;;;17.70;99.90;;;;;;5058711;28;20086;-74
2022/07/05 02:52:11;;;;;;;3.40;2.45;;;17.60;99.90;;;;;;5075316;28;20052;-74
2022/07/05 02:54:37;;;;;;;3.08;1.92;;;17.60;99.90;;;;;;5075760;28;20550;-75
2022/07/05 02:57:03;;;;;;;3.90;1.80;;;17.60;99.90;;;;;;5056639;28;20431;-74
2022/07/05 02:59:30;;;;;;;3.05;2.20;;;17.60;99.90;;;;;;5073008;28;20039;-74
2022/07/05 03:01:56;;;;;;;3.58;1.67;;;17.50;99.90;;;;;;5072794;28;20419;-74
2022/07/05 03:04:21;;;;;;;2.55;1.70;;;17.50;99.90;;;;;;5054825;28;20028;-74
2022/07/05 03:06:47;;;;;;;6.13;2.60;;;17.50;99.90;;;;;;5074062;28;20051;-74
2022/07/05 03:09:12;;;;;;;3.75;2.13;;;17.50;99.90;;;;;;5056973;28;20032;-74
2022/07/05 03:11:38;;;;;;;2.67;2.00;;;17.50;99.90;;;;;;5080875;28;20020;-76
2022/07/05 03:14:04;;;;;;;4.75;1.77;;;17.50;99.90;;;;;;5057218;28;20494;-74
2022/07/05 03:16:29;;;;;;;2.40;2.20;;;17.50;99.90;;;;;;5073809;28;20113;-75
2022/07/05 03:18:55;;;;;;;4.88;2.17;;;17.40;99.90;;;;;;5074826;28;20095;-75
2022/07/05 03:21:22;;;;;;;3.47;2.17;;;17.40;99.90;;;;;;5073539;28;20024;-75
2022/07/05 03:23:47;;;;;;;3.42;1.77;;;17.40;99.90;;;;;;5071311;28;20024;-75
2022/07/05 03:26:13;;;;;;;6.45;2.00;;;17.40;99.90;;;;;;5077306;28;20021;-74
2022/07/05 03:28:39;;;;;;;2.05;1.83;;;17.40;99.90;;;;;;5054903;28;20384;-75
2022/07/05 03:31:05;;;;;;;3.60;2.05;;;17.40;99.90;;;;;;5071993;28;20028;-74
2022/07/05 03:33:30;;;;;;;3.45;2.70;;;17.40;99.90;;;;;;5070032;28;20016;-75
2022/07/05 03:35:57;;;;;;;6.53;3.17;;;17.40;99.90;;;;;;5054243;28;20575;-75
2022/07/05 03:38:23;;;;;;;6.28;3.25;;;17.40;99.90;;;;;;5069912;28;20032;-75
2022/07/05 03:40:48;;;;;;;5.32;3.40;;;17.30;99.90;;;;;;5074587;28;20025;-75
2022/07/05 03:43:14;;;;;;;5.03;3.28;;;17.30;99.90;;;;;;5056228;28;20024;-76
2022/07/05 03:45:40;;;;;;;6.38;3.30;;;17.30;99.90;;;;;;5074082;28;20039;-75
2022/07/05 03:48:05;;;;;;;6.45;2.75;;;17.20;99.90;;;;;;5071688;28;20005;-75
2022/07/05 03:50:31;;;;;;;3.88;3.22;;;17.30;99.90;;;;;;5065728;28;20357;-75
2022/07/05 03:52:57;;;;;;;5.28;3.08;;;17.30;99.90;;;;;;5070966;28;20031;-75
2022/07/05 03:55:22;;;;;;;4.70;2.80;;;17.20;99.90;;;;;;5070813;28;20077;-74
2022/07/05 03:57:48;;;;;;;4.15;2.95;;;17.20;99.90;;;;;;5066189;28;20024;-76
2022/07/05 04:00:15;;;;;;;2.80;2.50;;;17.20;99.90;;;;;;5073542;28;20052;-76
2022/07/05 04:02:41;;;;;;;6.43;2.60;;;17.20;99.90;;;;;;5058006;28;20021;-75
2022/07/05 04:05:07;;;;;;;3.15;2.20;;;17.10;99.90;;;;;;5075265;28;20020;-75
2022/07/05 04:07:33;;;;;;;2.95;1.90;;;17.20;99.90;;;;;;5055354;28;20085;-75
2022/07/05 04:09:59;;;;;;;2.92;2.03;;;17.10;99.90;;;;;;5056257;28;20074;-76
2022/07/05 04:12:25;;;;;;;4.65;2.20;;;17.10;99.90;;;;;;5074576;28;20019;-76
2022/07/05 04:14:51;;;;;;;4.18;2.88;;;17.10;99.90;;;;;;5074566;28;20490;-76
2022/07/05 04:17:16;;;;;;;3.08;1.98;;;17.20;99.90;;;;;;5073194;28;20048;-76
2022/07/05 04:19:42;;;;;;;3.85;2.00;;;17.20;99.90;;;;;;5056274;28;20387;-75
2022/07/05 04:22:08;;;;;;;5.70;1.80;;;17.20;99.90;;;;;;5074167;28;20105;-76
2022/07/05 04:25:16;;;;;;;5.18;1.90;;;17.20;99.90;;;;;;5074584;28;20042;-76
2022/07/05 04:27:19;;;;;;;2.35;1.70;;;17.20;99.90;;;;;;5063227;28;20365;-75
2022/07/05 04:29:44;;;;;;;5.07;2.00;;;17.30;99.90;;;;;;5088160;28;20081;-75
2022/07/05 04:32:10;;;;;;;3.20;1.92;;;17.30;99.90;;;;;;5058261;28;20103;-75
2022/07/05 04:34:35;;;;;;;6.20;2.08;;;17.30;99.90;;;;;;5073812;28;20405;-76
2022/07/05 04:37:01;;;;;;;2.88;2.10;;;17.40;99.90;;;;;;5071380;28;20020;-75
2022/07/05 04:39:27;;;;;;;2.92;1.83;;;17.40;99.90;;;;;;5043065;28;20025;-75
2022/07/05 04:41:52;;;;;;;4.68;1.80;;;17.50;99.90;;;;;;5067767;28;20051;-75
2022/07/05 04:44:18;;;;;;;3.55;2.05;;;17.60;99.90;;;;;;5073629;28;20550;-75
2022/07/05 04:46:44;;;;;;;4.10;2.38;;;17.70;99.90;;;;;;5073198;28;20029;-75
2022/07/05 04:49:09;;;;;;;5.10;2.10;;;17.80;99.90;;;;;;5070203;28;20032;-76
2022/07/05 04:51:35;;;;;;;3.35;2.17;;;17.90;99.90;;;;;;5071347;28;20025;-76
2022/07/05 04:54:00;;;;;;;3.05;2.05;;;18.10;99.90;;;;;;5077764;28;20091;-76
2022/07/05 04:56:26;;;;;;;3.88;1.73;;;18.30;99.90;;;;;;5076933;28;20016;-76
2022/07/05 04:58:52;;;;;;;4.80;1.85;;;18.40;99.90;;;;;;5076331;28;20105;-74
2022/07/05 05:01:17;;;;;;;5.22;1.60;;;18.60;99.90;;;;;;5058528;28;20043;-72
2022/07/05 05:03:43;;;;;;;3.17;1.67;;;18.60;99.90;;;;;;5071769;28;20494;-74
2022/07/05 05:06:09;;;;;;;3.38;1.40;;;18.70;99.90;;;;;;5063217;28;20184;-74
2022/07/05 05:08:34;;;;;;;3.13;1.63;;;18.90;99.90;;;;;;5066544;28;20021;-73
2022/07/05 05:11:00;;;;;;;9.15;1.80;;;19.00;99.90;;;;;;5063790;28;20032;-73
2022/07/05 05:13:26;;;;;;;3.50;1.88;;;19.10;99.90;;;;;;5070586;28;20020;-73
2022/07/05 05:15:51;;;;;;;6.18;2.05;;;19.20;99.90;;;;;;5067846;28;20078;-74
2022/07/05 05:18:18;;;;;;;2.67;2.00;;;19.40;99.90;;;;;;5051058;28;20040;-74
2022/07/05 05:20:44;;;;;;;8.48;2.53;;;19.50;99.90;;;;;;5068208;28;20028;-74
2022/07/05 05:23:10;;;;;;;4.90;1.83;;;19.70;99.90;;;;;;5061678;28;20157;-75
2022/07/05 05:25:36;;;;;;;5.05;1.70;;;19.70;99.90;;;;;;5057693;28;20532;-75
2022/07/05 05:28:02;;;;;;;5.82;2.70;;;19.90;99.90;;;;;;5072644;28;20016;-75
2022/07/05 05:30:28;;;;;;;5.45;2.70;;;20.00;99.90;;;;;;5072817;28;20024;-75
2022/07/05 05:32:53;;;;;;;7.53;3.13;;;20.10;99.90;;;;;;5071908;28;20028;-75
2022/07/05 05:35:21;;;;;;;5.10;2.22;;;20.30;99.90;;;;;;5072824;28;20028;-75
2022/07/05 05:37:51;;;;;;;9.45;2.63;;;20.30;99.90;;;;;;5072956;28;20484;-74
2022/07/05 05:40:17;;;;;;;3.38;2.50;;;20.40;99.90;;;;;;5072800;28;20528;-75
2022/07/05 05:42:43;;;;;;;3.47;2.28;;;20.60;99.90;;;;;;5073896;28;20031;-75
2022/07/05 05:45:09;;;;;;;3.92;2.33;;;20.60;99.90;;;;;;5072694;28;20074;-76
2022/07/05 05:47:43;;;;;;;3.78;2.70;;;20.70;99.60;;;;;;5072697;28;20038;-75
2022/07/05 05:50:09;;;;;;;7.40;2.53;;;20.90;99.40;;;;;;5072778;28;20370;-76
2022/07/05 05:52:35;;;;;;;4.82;2.70;;;21.00;99.10;;;;;;5069663;28;20032;-75
2022/07/05 05:55:00;;;;;;;2.63;2.20;;;21.30;98.40;;;;;;5050790;28;20025;-76
2022/07/05 05:57:26;;;;;;;4.45;2.03;;;21.30;98.60;;;;;;5068214;28;20100;-78
2022/07/05 05:59:51;;;;;;;2.88;1.67;;;21.50;98.10;;;;;;5078215;28;20028;-78
2022/07/05 06:02:17;;;;;;;3.47;1.98;;;21.60;97.70;;;;;;5078337;28;20034;-77
2022/07/05 06:04:43;;;;;;;5.20;1.90;;;21.70;97.40;;;;;;5061573;28;20093;-77
2022/07/05 06:07:08;;;;;;;3.70;1.70;;;21.80;97.10;;;;;;5074393;28;20060;-79
2022/07/05 06:09:34;;;;;;;6.30;1.98;;;21.90;96.70;;;;;;5056468;28;20020;-78
2022/07/05 06:11:59;;;;;;;3.00;1.60;;;22.10;96.20;;;;;;5066040;28;20074;-78
2022/07/05 06:14:25;;;;;;;2.13;1.70;;;22.10;95.40;;;;;;5070655;28;20093;-78
2022/07/05 06:16:51;;;;;;;3.00;1.65;;;22.10;95.10;;;;;;5079180;28;20115;-78
2022/07/05 06:19:16;;;;;;;3.97;1.98;;;22.20;95.00;;;;;;5077890;28;20546;-79
2022/07/05 06:21:42;;;;;;;3.05;1.95;;;22.30;94.50;;;;;;5061843;28;20036;-78
2022/07/05 06:24:07;;;;;;;2.75;1.20;;;22.40;94.00;;;;;;5082014;28;20428;-79
2022/07/05 06:26:33;;;;;;;2.17;1.55;;;22.40;94.10;;;;;;5079537;28;20024;-78
2022/07/05 06:28:59;;;;;;;1.80;1.48;;;22.60;93.90;;;;;;5083347;28;20020;-79
2022/07/05 06:31:24;;;;;;;4.40;1.60;;;22.60;93.50;;;;;;5084994;28;20078;-79
2022/07/05 06:33:50;;;;;;;3.25;1.42;;;22.70;92.80;;;;;;5082431;28;20035;-79
2022/07/05 06:36:15;;;;;;;4.07;1.67;;;22.80;92.30;;;;;;5084193;28;20036;-79
2022/07/05 06:38:41;;;;;;;2.25;1.27;;;22.90;91.90;;;;;;5082876;28;20033;-79
2022/07/05 06:41:07;;;;;;;3.33;1.10;;;23.00;90.80;;;;;;5081336;28;20090;-79
2022/07/05 06:43:32;;;;;;;3.67;1.50;;;23.10;90.30;;;;;;5067044;28;20027;-79
2022/07/05 06:45:59;;;;;;;3.13;1.60;;;23.10;89.90;;;;;;5054558;28;20032;-78
2022/07/05 06:48:24;;;;;;;1.73;1.30;;;23.20;89.30;;;;;;5074471;28;20607;-78
2022/07/05 06:50:50;;;;;;;2.53;1.13;;;23.30;88.10;;;;;;5074596;28;20107;-78
2022/07/05 06:53:16;;;;;;;4.43;1.48;;;23.30;87.40;;;;;;5075014;28;20031;-78
2022/07/05 06:55:44;;;;;;;1.50;1.33;;;23.30;85.70;;;;;;5077974;28;20028;-78
2022/07/05 06:58:11;;;;;;;4.93;1.50;;;23.20;85.40;;;;;;5075030;28;20025;-78
2022/07/05 07:00:39;;;;;;;4.00;1.42;;;23.20;86.10;;;;;;5079939;28;20021;-78
2022/07/05 07:03:05;;;;;;;2.97;1.38;;;23.20;85.90;;;;;;5075320;28;20126;-78
2022/07/05 07:05:30;;;;;;;4.60;1.40;;;23.10;86.10;;;;;;5060296;28;20937;-78
2022/07/05 07:10:40;;;;;;;2.20;1.30;;;23.00;86.10;;;;;;5076218;28;20090;-78
2022/07/05 07:13:06;;;;;;;2.55;1.40;;;22.90;86.00;;;;;;5056303;28;20024;-78
2022/07/05 07:15:33;;;;;;;5.15;1.48;;;22.90;85.00;;;;;;5056291;28;20040;-77
2022/07/05 07:17:59;;;;;;;1.33;1.23;;;22.90;85.10;;;;;;5077264;28;20036;-77
2022/07/05 07:20:25;;;;;;;2.63;1.30;;;22.90;84.70;;;;;;5070395;28;20033;-78
2022/07/05 07:22:51;;;;;;;3.15;1.50;;;22.80;83.50;;;;;;5070105;28;20024;-77
2022/07/05 07:25:20;;;;;;;3.33;1.38;;;22.70;83.40;;;;;;5063513;28;20103;-77
2022/07/05 07:27:51;;;;;;;4.95;1.50;;;22.70;84.60;;;;;;5073633;22;20045;-72
2022/07/05 07:30:19;;;;;;;1.75;1.20;;;22.70;85.80;;;;;;5049973;28;20098;-73
2022/07/05 07:32:45;;;;;;;5.20;1.20;;;22.80;85.50;;;;;;5030641;28;20036;-73
2022/07/05 07:35:11;;;;;;;2.13;1.25;;;22.80;84.80;;;;;;5031031;28;20515;-72
2022/07/05 07:37:37;;;;;;;2.97;1.00;;;22.80;84.40;;;;;;5046209;28;20025;-73
2022/07/05 07:40:07;;;;;;;3.72;1.30;;;22.70;82.90;;;;;;5026740;28;20104;-73
2022/07/05 07:42:33;;;;;;;2.33;1.50;;;22.70;82.20;;;;;;5049026;28;20036;-73
2022/07/05 07:44:59;;;;;;;2.72;1.10;;;22.80;81.60;;;;;;5047338;28;20025;-72
2022/07/05 07:47:24;;;;;;;2.45;1.10;;;22.80;82.00;;;;;;5044576;28;20103;-72
2022/07/05 07:49:50;;;;;;;2.00;1.17;;;22.80;82.10;;;;;;5031964;28;20426;-72
2022/07/05 07:52:16;;;;;;;2.45;1.33;;;22.80;81.80;;;;;;5044605;28;21663;-73
2022/07/05 07:54:42;;;;;;;3.38;1.63;;;22.90;82.50;;;;;;5030595;28;20037;-73
2022/07/05 07:57:07;;;;;;;4.18;1.30;;;22.80;82.90;;;;;;5047758;28;20116;-72
2022/07/05 07:59:34;;;;;;;3.33;1.30;;;22.90;82.70;;;;;;5043391;28;20174;-73
2022/07/05 08:02:00;;;;;;;2.65;1.30;;;22.90;83.20;;;;;;5047797;28;20018;-72
2022/07/05 08:04:26;;;;;;;5.18;1.48;;;23.00;83.30;;;;;;5048742;28;20362;-72
2022/07/05 08:06:52;;;;;;;7.85;1.45;;;23.00;83.30;;;;;;5045607;28;20021;-73
2022/07/05 08:09:18;;;;;;;1.50;1.17;;;23.00;83.70;;;;;;5048136;28;20017;-72
2022/07/05 08:11:46;;;;;;;4.88;1.50;;;23.10;84.10;;;;;;5041003;28;20104;-72
2022/07/05 08:14:12;;;;;;;4.07;1.45;;;23.10;84.20;;;;;;5037457;28;25616;-72
2022/07/05 08:16:37;;;;;;;5.30;1.48;;;23.10;84.20;;;;;;5045933;28;20060;-72
2022/07/05 08:21:52;;;;;;;3.15;1.17;;;23.20;83.20;;;;;;5022103;28;20037;-73
2022/07/05 08:24:17;;;;;;;2.28;1.13;;;23.20;82.90;;;;;;5050091;28;20104;-73
2022/07/05 08:26:44;;;;;;;1.83;1.13;;;23.30;81.70;;;;;;5042842;28;20036;-72
2022/07/05 08:29:11;;;;;;;3.65;1.67;;;23.30;81.70;;;;;;5045831;28;20021;-72
2022/07/05 08:31:43;;;;;;;3.13;1.23;;;23.40;81.90;;;;;;5048899;28;20257;-72
2022/07/05 08:34:09;;;;;;;2.03;1.00;;;23.50;82.10;;;;;;5046241;28;20473;-73
2022/07/05 08:36:35;;;;;;;1.92;1.30;;;23.60;81.60;;;;;;5046121;28;20112;-72
2022/07/05 08:39:01;;;;;;;3.55;2.03;;;23.70;81.30;;;;;;5042047;28;20056;-72
2022/07/05 08:41:29;;;;;;;2.72;1.40;;;23.80;81.60;;;;;;5046765;28;20031;-72
2022/07/05 08:43:57;;;;;;;2.13;1.25;;;23.80;81.50;;;;;;5029312;28;20507;-72
2022/07/05 08:46:25;;;;;;;1.50;1.20;;;23.90;81.20;;;;;;5033805;28;20176;-72
2022/07/05 08:48:51;;;;;;;5.60;1.48;;;23.90;80.40;;;;;;5043802;28;20029;-73
2022/07/05 08:51:20;;;;;;;3.28;1.30;;;23.90;80.10;;;;;;5046885;28;20192;-73
2022/07/05 08:53:47;;;;;;;3.17;1.10;;;23.90;79.10;;;;;;5039345;28;20025;-73
2022/07/05 08:56:14;;;;;;;4.10;1.10;;;23.90;78.40;;;;;;5043051;28;20029;-73
2022/07/05 08:58:40;;;;;;;1.73;1.25;;;23.90;77.90;;;;;;5045632;28;20028;-73
2022/07/05 09:01:07;;;;;;;4.15;1.45;;;23.90;77.70;;;;;;5051069;28;20388;-73
2022/07/05 09:03:51;;;;;;;2.53;1.25;;;23.90;77.70;;;;;;5033811;28;20037;-73
2022/07/05 09:06:19;;;;;;;3.10;1.08;;;23.90;77.40;;;;;;5028297;28;20116;-74
2022/07/05 09:08:47;;;;;;;5.32;1.48;;;24.00;77.10;;;;;;5058016;28;20021;-75
2022/07/05 09:11:14;;;;;;;6.55;1.48;;;24.00;76.80;;;;;;5049320;28;20524;-74
2022/07/05 09:13:43;;;;;;;1.63;1.02;;;24.00;76.10;;;;;;5050917;28;20017;-74
2022/07/05 09:16:09;;;;;;;3.95;1.35;;;24.00;75.60;;;;;;5048278;28;20032;-74
2022/07/05 09:18:47;;;;;;;6.78;1.90;;;24.10;75.70;;;;;;5046847;28;20547;-74
2022/07/05 09:21:18;;;;;;;3.22;1.50;;;24.00;75.10;;;;;;5039044;28;20117;-73
2022/07/05 09:23:54;;;;;;;4.78;1.48;;;24.00;74.90;;;;;;5051190;28;20021;-74
2022/07/05 09:26:20;;;;;;;5.40;1.45;;;24.00;75.50;;;;;;5047841;28;20095;-73
2022/07/05 09:28:56;;;;;;;4.72;1.50;;;24.10;75.80;;;;;;5048749;28;20037;-73
2022/07/05 09:31:32;;;;;;;3.15;1.48;;;24.10;75.00;;;;;;5049802;28;20029;-74
2022/07/05 09:34:09;;;;;;;2.20;1.20;;;24.20;76.00;;;;;;5029000;28;20452;-73
2022/07/05 09:36:47;;;;;;;2.53;1.15;;;24.30;76.10;;;;;;5028551;28;20036;-73
2022/07/05 09:39:12;;;;;;;3.08;1.17;;;24.40;75.80;;;;;;5052423;28;20052;-74
2022/07/05 09:41:38;;;;;;;3.17;1.00;;;24.50;75.00;;;;;;5049365;28;20068;-73
2022/07/05 09:44:05;;;;;;;4.43;1.10;;;24.60;75.10;;;;;;5053365;28;20057;-73
2022/07/05 09:46:31;;;;;;;3.47;1.30;;;24.60;74.60;;;;;;5048060;28;20100;-73
2022/07/05 09:48:56;;;;;;;1.98;0.95;;;24.70;74.40;;;;;;5049224;28;20112;-73
2022/07/05 09:51:22;;;;;;;4.10;1.42;;;24.80;73.20;;;;;;5041362;28;20108;-73
2022/07/05 09:53:50;;;;;;;2.95;1.38;;;24.80;73.30;;;;;;5046660;28;20029;-74
2022/07/05 09:56:17;;;;;;;3.13;1.20;;;24.80;71.00;;;;;;5048817;28;20044;-73
2022/07/05 09:58:44;;;;;;;1.60;1.20;;;24.90;70.90;;;;;;5042237;28;20033;-74
2022/07/05 10:01:26;;;;;;;4.38;1.27;;;24.90;70.70;;;;;;5050629;28;20020;-74
2022/07/05 10:04:01;;;;;;;4.90;1.67;;;24.90;71.20;;;;;;5052482;28;20028;-73
2022/07/05 10:06:28;;;;;;;2.22;1.10;;;25.00;71.60;;;;;;5027581;28;20033;-73
2022/07/05 10:08:54;;;;;;;2.17;1.25;;;25.10;70.80;;;;;;4992640;28;20037;-74
2022/07/05 10:11:21;;;;;;;3.75;1.33;;;25.20;70.40;;;;;;5050240;28;20036;-72
2022/07/05 10:13:49;;;;;;;2.35;1.10;;;25.30;70.50;;;;;;5063189;28;20069;-73
2022/07/05 10:16:19;;;;;;;3.30;1.27;;;25.50;69.00;;;;;;5067114;28;20032;-74
2022/07/05 10:18:46;;;;;;;5.13;1.02;;;25.60;67.50;;;;;;5062643;28;20044;-74
2022/07/05 10:21:14;;;;;;;1.98;1.08;;;25.70;65.40;;;;;;5064167;28;20025;-74
2022/07/05 10:23:44;;;;;;;4.72;1.20;;;25.80;64.90;;;;;;5073263;28;20390;-74
2022/07/05 10:26:12;;;;;;;6.18;2.00;;;25.80;65.80;;;;;;5068015;28;20052;-73
2022/07/05 10:28:49;;;;;;;1.35;0.70;;;25.70;66.90;;;;;;5064673;28;20041;-73
2022/07/05 10:31:16;;;;;;;1.20;0.95;;;25.60;65.60;;;;;;5070472;28;20062;-74
2022/07/05 10:33:42;;;;;;;1.73;0.80;;;25.50;64.10;;;;;;5064792;28;20033;-74
2022/07/05 10:36:10;;;;;;;2.05;1.20;;;25.40;64.20;;;;;;5048121;28;20063;-73
2022/07/05 10:38:40;;;;;;;6.13;1.05;;;25.20;61.90;;;;;;5062185;28;20550;-74
2022/07/05 10:41:08;;;;;;;2.85;0.95;;;25.10;60.30;;;;;;5065297;28;20484;-73
2022/07/05 10:43:34;;;;;;;1.08;0.98;;;25.00;61.30;;;;;;5062505;28;20035;-73
2022/07/05 10:46:02;;;;;;;1.75;1.00;;;24.80;62.30;;;;;;5071972;28;20035;-73
2022/07/05 10:48:28;;;;;;;2.70;1.00;;;24.80;63.30;;;;;;5071232;28;20358;-73
2022/07/05 10:50:54;;;;;;;2.28;1.30;;;24.80;64.00;;;;;;5069157;28;20024;-74
2022/07/05 10:53:47;;;;;;;2.03;0.93;;;24.80;64.30;;;;;;5067373;28;20043;-73
2022/07/05 10:56:14;;;;;;;3.05;1.10;;;24.80;64.30;;;;;;5061313;28;20555;-74
2022/07/05 10:58:47;;;;;;;3.45;1.02;;;24.90;64.20;;;;;;5072591;28;20020;-74
2022/07/05 11:01:19;;;;;;;2.38;1.10;;;24.80;62.90;;;;;;5077991;28;20116;-74
2022/07/05 11:03:52;;;;;;;3.72;1.00;;;24.80;63.30;;;;;;5069576;28;20465;-74
2022/07/05 11:06:24;;;;;;;1.00;0.90;;;24.70;63.30;;;;;;5063608;28;20037;-74
2022/07/05 11:11:32;;;;;;;1.45;0.80;;;24.60;62.60;;;;;;5073402;28;20033;-74
2022/07/05 11:13:59;;;;;;;1.42;0.88;;;24.60;62.20;;;;;;5071342;28;20078;-74
2022/07/05 11:16:29;;;;;;;3.08;1.00;;;24.50;62.30;;;;;;5052436;28;20039;-74
2022/07/05 11:19:16;;;;;;;2.03;0.80;;;24.60;62.80;;;;;;5076858;28;20567;-74
2022/07/05 11:22:01;;;;;;;3.38;1.30;;;24.60;62.70;;;;;;5056501;28;20024;-74
2022/07/05 11:24:29;;;;;;;3.35;1.20;;;24.80;63.30;;;;;;5052761;28;20028;-74
2022/07/05 11:26:59;;;;;;;1.35;0.70;;;24.90;63.10;;;;;;5053891;28;20475;-74
2022/07/05 11:29:50;;;;;;;1.83;0.93;;;25.00;62.50;;;;;;5070058;28;20135;-74
2022/07/05 11:32:21;;;;;;;2.35;0.90;;;25.10;60.00;;;;;;5069873;28;20063;-74
2022/07/05 11:34:52;;;;;;;3.78;1.00;;;25.20;59.20;;;;;;5057855;28;20036;-74
2022/07/05 11:37:28;;;;;;;1.48;0.80;;;25.30;59.20;;;;;;5057432;28;20404;-74
2022/07/05 11:40:12;;;;;;;3.20;1.10;;;25.30;59.40;;;;;;5073681;28;20049;-74
2022/07/05 11:42:46;;;;;;;4.03;1.10;;;25.50;59.50;;;;;;5066833;28;20035;-74
2022/07/05 11:45:11;;;;;;;;;;;25.50;59.30;;;;;;5074664;28;20029;-74
2022/07/05 11:47:38;;;;;;;1.10;0.80;;;25.60;57.80;;;;;;5074618;28;20296;-74
2022/07/05 11:50:03;;;;;;;1.00;0.80;;;25.70;57.70;;;;;;5063040;28;20499;-74
2022/07/05 11:52:31;;;;;;;2.30;0.93;;;25.60;56.90;;;;;;5070973;28;20016;-74
2022/07/05 11:54:59;;;;;;;3.95;1.10;;;25.60;56.90;;;;;;5071872;28;20020;-74
2022/07/05 11:57:25;;;;;;;2.35;0.80;;;25.60;56.70;;;;;;5067781;28;20086;-74
2022/07/05 11:59:50;;;;;;;2.47;0.70;;;25.60;57.20;;;;;;5071609;28;20028;-74
2022/07/05 12:02:17;;;;;;;3.33;1.35;;;25.60;56.50;;;;;;5065542;28;20041;-74
2022/07/05 12:04:51;;;;;;;1.35;0.90;;;25.60;56.70;;;;;;5039321;28;20520;-74
2022/07/05 12:07:29;;;;;;;0.90;0.70;;;25.60;56.90;;;;;;5070757;28;20496;-74
2022/07/05 12:12:44;;;;;;;3.20;0.95;;;25.60;57.10;;;;;;5073994;28;20453;-74
2022/07/05 12:15:18;;;;;;;3.95;1.10;;;25.50;56.90;;;;;;5074479;28;20087;-74
2022/07/05 12:17:46;;;;;;;2.95;1.23;;;25.60;57.50;;;;;;5071615;28;20090;-74
2022/07/05 12:20:19;;;;;;;3.80;1.10;;;25.60;58.40;;;;;;5050000;28;20037;-74
2022/07/05 12:22:45;;;;;;;2.05;0.90;;;25.60;57.80;;;;;;5066704;28;20029;-74
2022/07/05 12:25:14;;;;;;;0.88;0.70;;;25.60;58.00;;;;;;5066243;28;20029;-74
2022/07/05 12:27:41;;;;;;;2.40;1.20;;;25.60;58.10;;;;;;5070927;28;20064;-74
2022/07/05 12:30:09;;;;;;;2.35;0.88;;;25.70;57.90;;;;;;5052414;28;20066;-74
2022/07/05 12:33:06;;;;;;;3.25;0.90;;;25.70;57.50;;;;;;5066785;28;20025;-74
2022/07/05 12:35:35;;;;;;;2.60;0.88;;;25.70;56.20;;;;;;5067650;28;20455;-74
2022/07/05 12:38:08;;;;;;;1.65;1.00;;;25.70;56.40;;;;;;5048074;28;20025;-74
2022/07/05 12:40:36;;;;;;;3.50;1.10;;;25.70;57.50;;;;;;5044609;28;20469;-74
2022/07/05 12:43:06;;;;;;;1.30;1.17;;;25.80;57.30;;;;;;5055585;28;20040;-74
2022/07/05 12:45:32;;;;;;;4.28;0.80;;;25.80;57.60;;;;;;5071722;28;20028;-74
2022/07/05 12:48:00;;;;;;;3.45;0.80;;;25.80;57.80;;;;;;5066747;28;20031;-74
2022/07/05 12:50:29;;;;;;;2.95;0.90;;;25.80;57.40;;;;;;5067640;28;20025;-74
2022/07/05 12:58:48;;;;;;;2.10;0.80;;;25.70;56.60;;;;;;5064132;28;20048;-74
2022/07/05 13:01:20;;;;;;;2.13;1.20;;;25.70;57.10;;;;;;5064014;28;20058;-74
2022/07/05 13:04:06;;;;;;;1.13;0.85;;;25.80;56.60;;;;;;5064759;28;20089;-74
2022/07/05 13:06:54;;;;;;;1.92;0.80;;;25.80;56.30;;;;;;5067864;28;20377;-74